Time;durP1;ratioP1;P1;durP2;ratioP2;P2;SDS_P1;SDS_P2;PMS_P1;PMS_P2;Temp;Humidity;BMP_temperature;BMP_pressure;BME280_temperature;BME280_humidity;BME280_pressure;Samples;Min_cycle;Max_cycle;Signal;HPM_P1;HPM_P2
2023/02/16 00:00:31;;;;;;;30.83;18.80;;;;;;;;;;5054079;28;20209;-58
2023/02/16 00:02:56;;;;;;;35.40;21.80;;;4.00;99.90;;;;;;5054192;28;20179;-59
2023/02/16 00:05:24;;;;;;;31.37;20.30;;;;;;;;;;5053763;28;20254;-60
2023/02/16 00:07:50;;;;;;;31.07;19.53;;;;;;;;;;5053522;28;20167;-60
2023/02/16 00:10:16;;;;;;;30.57;19.37;;;3.90;99.90;;;;;;5054048;28;20202;-60
2023/02/16 00:15:26;;;;;;;32.57;20.70;;;4.00;99.90;;;;;;5053503;28;20217;-60
2023/02/16 00:17:53;;;;;;;29.40;18.33;;;;;;;;;;5035491;28;20282;-58
2023/02/16 00:20:19;;;;;;;40.10;22.33;;;3.90;99.90;;;;;;5035787;28;20199;-58
2023/02/16 00:22:45;;;;;;;33.10;20.93;;;;;;;;;;5053631;28;20181;-60
2023/02/16 00:25:11;;;;;;;34.53;20.80;;;;;;;;;;5052581;28;20229;-60
2023/02/16 00:27:37;;;;;;;33.67;21.47;;;;;;;;;;5053738;28;20186;-60
2023/02/16 00:30:12;;;;;;;33.87;20.97;;;;;;;;;;5053731;28;20185;-61
2023/02/16 00:32:38;;;;;;;30.90;19.53;;;;;;;;;;5053299;28;20649;-58
2023/02/16 00:35:05;;;;;;;30.77;19.73;;;;;;;;;;5052877;28;20429;-58
2023/02/16 00:37:31;;;;;;;31.20;20.23;;;;;;;;;;5053079;28;20638;-60
2023/02/16 00:39:57;;;;;;;33.17;21.13;;;;;;;;;;5042600;28;20432;-53
2023/02/16 00:42:27;;;;;;;29.47;19.47;;;;;;;;;;5052653;28;20174;-57
2023/02/16 00:44:55;;;;;;;33.43;20.87;;;4.20;99.90;;;;;;5034645;28;20361;-56
2023/02/16 00:47:21;;;;;;;33.13;20.80;;;;;;;;;;5052723;28;20215;-58
2023/02/16 00:49:49;;;;;;;34.07;22.03;;;4.10;99.90;;;;;;5034948;28;20215;-55
2023/02/16 00:52:33;;;;;;;29.93;19.17;;;;;;;;;;5052912;28;20566;-57
2023/02/16 00:55:00;;;;;;;33.70;20.13;;;;;;;;;;5052590;28;20676;-58
2023/02/16 00:57:28;;;;;;;33.50;22.10;;;;;;;;;;5052642;28;20249;-60
2023/02/16 01:00:14;;;;;;;33.50;20.80;;;;;;;;;;5052201;28;20189;-61
2023/02/16 01:02:41;;;;;;;33.47;20.57;;;;;;;;;;5052730;28;20189;-59
2023/02/16 01:05:07;;;;;;;33.77;20.87;;;;;;;;;;5052292;28;20207;-59
2023/02/16 01:13:02;;;;;;;32.07;20.40;;;;;;;;;;5052574;28;20191;-59
2023/02/16 01:15:28;;;;;;;34.10;20.83;;;;;;;;;;5052086;28;20187;-58
2023/02/16 01:17:54;;;;;;;33.60;21.13;;;4.10;99.90;;;;;;5052142;28;20190;-57
2023/02/16 01:20:21;;;;;;;36.07;21.47;;;;;;;;;;5052425;28;20199;-60
2023/02/16 01:22:47;;;;;;;32.77;21.03;;;;;;;;;;5052393;28;20225;-59
2023/02/16 01:25:14;;;;;;;32.80;20.70;;;;;;;;;;5051920;28;20965;-58
2023/02/16 01:27:40;;;;;;;30.27;19.40;;;;;;;;;;5052156;28;20561;-60
2023/02/16 01:30:07;;;;;;;37.03;21.40;;;;;;;;;;5052080;28;20266;-60
2023/02/16 01:32:33;;;;;;;35.70;21.33;;;;;;;;;;5052464;28;20641;-57
2023/02/16 01:34:59;;;;;;;32.60;21.13;;;4.20;99.90;;;;;;5051645;28;20703;-58
2023/02/16 01:37:24;;;;;;;27.73;18.87;;;4.20;99.90;;;;;;5051847;28;20195;-59
2023/02/16 01:39:50;;;;;;;27.77;19.23;;;;;;;;;;5051927;28;20324;-61
2023/02/16 01:42:39;;;;;;;29.40;20.07;;;4.20;99.90;;;;;;5051635;28;20242;-60
2023/02/16 01:45:14;;;;;;;36.27;22.27;;;;;;;;;;5051793;28;20210;-58
2023/02/16 01:47:44;;;;;;;31.73;20.43;;;;;;;;;;5051550;28;20653;-58
2023/02/16 01:50:16;;;;;;;30.87;20.33;;;4.00;99.90;;;;;;5051720;28;20171;-57
2023/02/16 01:52:44;;;;;;;31.47;20.33;;;;;;;;;;5050562;28;20429;-57
2023/02/16 01:55:09;;;;;;;29.40;19.40;;;;;;;;;;5051424;28;20209;-57
2023/02/16 01:57:44;;;;;;;33.07;20.50;;;;;;;;;;5051382;28;20421;-56
2023/02/16 02:00:16;;;;;;;27.90;18.60;;;;;;;;;;5051633;28;20775;-58
2023/02/16 02:02:51;;;;;;;28.87;19.00;;;4.00;99.90;;;;;;5051257;28;20657;-57
2023/02/16 02:05:36;;;;;;;26.97;18.33;;;3.90;99.90;;;;;;5051550;28;20209;-58
2023/02/16 02:08:19;;;;;;;36.17;21.03;;;3.80;99.90;;;;;;5051258;28;20183;-60
2023/02/16 02:11:02;;;;;;;37.00;21.83;;;3.70;99.90;;;;;;5051381;28;20198;-58
2023/02/16 02:13:36;;;;;;;29.90;19.13;;;;;;;;;;5051370;28;21030;-58
2023/02/16 02:16:04;;;;;;;27.73;18.07;;;3.90;99.90;;;;;;5051145;28;20462;-60
2023/02/16 02:18:30;;;;;;;29.57;19.43;;;;;;;;;;5051198;28;20472;-58
2023/02/16 02:23:46;;;;;;;30.23;19.67;;;;;;;;;;5050917;28;20273;-58
2023/02/16 02:26:24;;;;;;;28.93;19.47;;;;;;;;;;5050941;28;20179;-58
2023/02/16 02:29:25;;;;;;;32.70;19.10;;;3.50;99.90;;;;;;5051042;28;20573;-57
2023/02/16 02:31:53;;;;;;;26.63;17.93;;;3.50;99.90;;;;;;4969535;28;20457;-59
2023/02/16 02:34:25;;;;;;;29.83;19.27;;;;;;;;;;4970262;28;20425;-57
2023/02/16 02:37:01;;;;;;;27.37;19.30;;;;;;;;;;4969788;28;20202;-60
2023/02/16 02:39:34;;;;;;;27.33;19.40;;;;;;;;;;4970230;28;20433;-60
2023/02/16 02:42:30;;;;;;;26.93;18.63;;;3.70;99.90;;;;;;4971974;28;20709;-58
2023/02/16 02:44:59;;;;;;;28.40;17.60;;;;;;;;;;4969664;28;20237;-58
2023/02/16 02:47:40;;;;;;;27.60;17.73;;;3.80;99.90;;;;;;4969835;28;20430;-58
2023/02/16 02:50:31;;;;;;;28.47;19.00;;;;;;;;;;4953736;28;20209;-62
2023/02/16 02:52:59;;;;;;;26.17;17.87;;;;;;;;;;4969516;28;20445;-58
2023/02/16 03:00:59;;;;;;;100.23;23.00;;;;;;;;;;4969703;28;20548;-59
2023/02/16 03:03:30;;;;;;;27.60;17.87;;;3.80;99.90;;;;;;4969677;28;20485;-60
2023/02/16 03:06:01;;;;;;;27.53;18.40;;;3.70;99.90;;;;;;4972967;28;20464;-60
2023/02/16 03:08:30;;;;;;;33.80;20.00;;;3.70;99.90;;;;;;5024795;28;20191;-57
2023/02/16 03:13:50;;;;;;;24.87;16.67;;;3.70;99.90;;;;;;5051294;28;20248;-58
2023/02/16 03:16:22;;;;;;;28.20;18.20;;;3.70;99.90;;;;;;5054888;28;20405;-58
2023/02/16 03:29:52;;;;;;;28.27;17.80;;;;;;;;;;5054688;28;20491;-57
2023/02/16 03:32:18;;;;;;;26.10;17.57;;;;;;;;;;5054101;28;20954;-57
2023/02/16 03:34:44;;;;;;;36.03;19.37;;;3.80;99.90;;;;;;5054436;28;20475;-58
2023/02/16 03:37:10;;;;;;;28.60;18.37;;;3.60;99.90;;;;;;5054042;28;20422;-61
2023/02/16 03:40:26;;;;;;;26.03;18.13;;;;;;;;;;5054331;28;20210;-62
2023/02/16 03:42:22;;;;;;;29.37;19.03;;;;;;;;;;5053749;28;20624;-60
2023/02/16 03:44:48;;;;;;;29.13;20.03;;;3.70;99.90;;;;;;5054031;28;20471;-58
2023/02/16 03:47:14;;;;;;;26.73;17.83;;;;;;;;;;5053836;28;20777;-63
2023/02/16 03:49:40;;;;;;;26.60;18.03;;;;;;;;;;5054433;28;20190;-59
2023/02/16 03:52:06;;;;;;;25.03;18.03;;;;;;;;;;5053415;28;20206;-59
2023/02/16 03:54:32;;;;;;;24.50;17.00;;;3.60;99.90;;;;;;5054170;28;20191;-59
2023/02/16 03:56:57;;;;;;;30.13;17.73;;;;;;;;;;5053672;28;20186;-61
2023/02/16 03:59:23;;;;;;;39.87;19.47;;;3.30;99.90;;;;;;5053945;28;20183;-59
2023/02/16 04:01:49;;;;;;;30.77;22.70;;;;;;;;;;5053619;28;20230;-59
2023/02/16 04:04:15;;;;;;;34.10;21.23;;;;;;;;;;5053677;28;20248;-61
2023/02/16 04:06:41;;;;;;;38.80;22.33;;;;;;;;;;5053527;28;20183;-58
2023/02/16 04:09:07;;;;;;;30.73;20.27;;;;;;;;;;5053555;28;20171;-58
2023/02/16 04:14:16;;;;;;;27.17;18.33;;;3.40;99.90;;;;;;5053942;28;20573;-58
2023/02/16 04:16:42;;;;;;;27.43;18.13;;;3.50;99.90;;;;;;5052483;28;20417;-55
2023/02/16 04:19:08;;;;;;;28.07;19.00;;;;;;;;;;5053494;28;20187;-59
2023/02/16 04:21:34;;;;;;;27.80;18.70;;;;;;;;;;5053286;28;20669;-58
2023/02/16 04:24:01;;;;;;;24.20;16.67;;;;;;;;;;5053330;28;20461;-61
2023/02/16 04:26:26;;;;;;;27.63;18.20;;;3.60;99.90;;;;;;5053088;28;20588;-58
2023/02/16 04:28:52;;;;;;;28.03;18.47;;;;;;;;;;5053411;28;20432;-60
2023/02/16 04:31:18;;;;;;;26.17;17.67;;;;;;;;;;5053112;28;20293;-60
2023/02/16 04:33:44;;;;;;;27.07;17.50;;;;;;;;;;5053317;28;20262;-57
2023/02/16 04:36:10;;;;;;;28.43;19.37;;;;;;;;;;5053165;28;20183;-59
2023/02/16 04:38:36;;;;;;;26.90;18.37;;;3.80;99.90;;;;;;5052903;28;20186;-59
2023/02/16 04:41:01;;;;;;;26.00;17.23;;;3.60;99.90;;;;;;5052897;28;20199;-58
2023/02/16 04:43:27;;;;;;;24.93;17.77;;;;;;;;;;5053257;28;20187;-61
2023/02/16 04:45:53;;;;;;;28.37;18.80;;;;;;;;;;5052879;28;20306;-61
2023/02/16 04:48:19;;;;;;;63.93;21.47;;;;;;;;;;5052861;28;20262;-59
2023/02/16 04:50:45;;;;;;;44.47;19.90;;;;;;;;;;5052706;28;20203;-58
2023/02/16 04:53:11;;;;;;;187.50;26.73;;;;;;;;;;5052728;28;20180;-59
2023/02/16 04:55:36;;;;;;;25.83;17.37;;;3.20;99.90;;;;;;5052819;28;20191;-59
2023/02/16 04:58:02;;;;;;;31.03;17.87;;;3.30;99.90;;;;;;5052434;28;20248;-58
2023/02/16 05:00:28;;;;;;;26.83;18.07;;;;;;;;;;5052574;28;20261;-60
2023/02/16 05:02:53;;;;;;;56.23;18.57;;;3.00;99.90;;;;;;5052681;28;20225;-58
2023/02/16 05:05:19;;;;;;;28.17;18.33;;;3.00;99.90;;;;;;5052620;28;20203;-56
2023/02/16 05:07:44;;;;;;;26.83;17.37;;;3.30;99.90;;;;;;5052512;28;20184;-58
2023/02/16 05:10:10;;;;;;;27.67;18.17;;;;;;;;;;5052160;28;20179;-60
2023/02/16 05:15:21;;;;;;;26.77;17.33;;;3.20;99.90;;;;;;5037899;28;20452;-60
2023/02/16 05:17:47;;;;;;;42.70;18.33;;;;;;;;;;5051950;28;20421;-60
2023/02/16 05:20:13;;;;;;;25.00;16.97;;;;;;;;;;5052035;28;20187;-60
2023/02/16 05:22:38;;;;;;;25.33;17.23;;;;;;;;;;5052036;28;20194;-58
2023/02/16 05:25:06;;;;;;;28.27;17.57;;;3.40;99.90;;;;;;5051463;28;20218;-59
2023/02/16 05:27:31;;;;;;;27.07;17.53;;;3.30;99.90;;;;;;5051727;28;20183;-60
2023/02/16 05:29:57;;;;;;;25.37;17.97;;;5.20;99.90;;;;;;5051900;28;20437;-57
2023/02/16 05:32:23;;;;;;;29.80;19.10;;;;;;;;;;5052402;28;20210;-61
2023/02/16 05:34:49;;;;;;;26.07;17.37;;;;;;;;;;5052195;28;20190;-59
2023/02/16 05:37:16;;;;;;;28.57;18.53;;;;;;;;;;5051829;28;20421;-58
2023/02/16 05:39:42;;;;;;;26.10;17.30;;;3.20;99.90;;;;;;5051893;28;20676;-57
2023/02/16 05:42:08;;;;;;;113.17;23.43;;;3.20;99.90;;;;;;5052004;28;20441;-60
2023/02/16 05:44:34;;;;;;;24.03;17.17;;;;;;;;;;5051935;28;20477;-60
2023/02/16 05:47:00;;;;;;;129.10;21.80;;;;;;;;;;5051731;28;20471;-59
2023/02/16 05:49:26;;;;;;;25.10;17.13;;;;;;;;;;5051617;28;20433;-60
2023/02/16 05:51:52;;;;;;;27.73;18.93;;;;;;;;;;5051717;28;20207;-59
2023/02/16 05:54:18;;;;;;;25.13;16.70;;;;;;;;;;5051767;28;20183;-60
2023/02/16 05:56:45;;;;;;;26.60;18.30;;;;;;;;;;5051672;28;20183;-61
2023/02/16 05:59:11;;;;;;;25.83;17.37;;;;;;;;;;5051319;28;20425;-59
2023/02/16 06:01:39;;;;;;;30.83;18.53;;;3.20;99.90;;;;;;5051758;28;20520;-58
2023/02/16 06:04:05;;;;;;;27.77;18.30;;;;;;;;;;5051616;28;20468;-58
2023/02/16 06:06:31;;;;;;;28.20;17.47;;;;;;;;;;5051421;28;20750;-61
2023/02/16 06:08:57;;;;;;;28.70;17.90;;;;;;;;;;5051347;28;20437;-58
2023/02/16 06:11:36;;;;;;;25.67;17.93;;;;;;;;;;5051426;28;20195;-59
2023/02/16 06:14:19;;;;;;;26.30;17.73;;;3.10;99.90;;;;;;5049693;28;20224;-59
2023/02/16 06:16:50;;;;;;;24.60;16.60;;;;;;;;;;5052046;28;20915;-58
2023/02/16 06:19:16;;;;;;;23.70;16.37;;;;;;;;;;5051070;28;20414;-58
2023/02/16 06:21:42;;;;;;;24.37;16.60;;;;;;;;;;5051237;28;20974;-57
2023/02/16 06:24:09;;;;;;;22.93;15.87;;;;;;;;;;5051341;28;20453;-57
2023/02/16 06:26:36;;;;;;;21.97;15.67;;;;;;;;;;5050599;28;20186;-59
2023/02/16 06:29:02;;;;;;;22.43;16.20;;;;;;;;;;5066325;28;20679;-58
2023/02/16 06:31:28;;;;;;;22.77;16.17;;;;;;;;;;5053105;28;20430;-58
2023/02/16 06:33:55;;;;;;;26.57;18.33;;;;;;;;;;5061055;28;20196;-55
2023/02/16 06:36:22;;;;;;;29.43;17.90;;;;;;;;;;5058266;28;20183;-57
2023/02/16 06:38:48;;;;;;;25.73;16.77;;;;;;;;;;5051848;28;20505;-59
2023/02/16 06:41:30;;;;;;;28.27;20.53;;;;;;;;;;5052268;28;20191;-59
2023/02/16 06:43:59;;;;;;;25.20;16.83;;;;;;;;;;5052288;28;20425;-57
2023/02/16 06:46:25;;;;;;;27.03;19.13;;;;;;;;;;5057496;28;20925;-60
2023/02/16 06:48:51;;;;;;;22.93;15.87;;;;;;;;;;5054040;28;20450;-60
2023/02/16 06:51:17;;;;;;;25.53;17.53;;;;;;;;;;5057913;28;20471;-58
2023/02/16 06:53:43;;;;;;;23.50;16.20;;;;;;;;;;5063141;28;20650;-60
2023/02/16 06:56:09;;;;;;;24.30;16.17;;;;;;;;;;5052172;28;20413;-59
2023/02/16 06:58:35;;;;;;;24.17;16.67;;;;;;;;;;5056998;28;20187;-56
2023/02/16 07:01:00;;;;;;;24.57;16.97;;;3.50;99.90;;;;;;5050685;28;20207;-59
2023/02/16 07:03:26;;;;;;;23.60;15.63;;;3.10;99.90;;;;;;5050721;28;20225;-59
2023/02/16 07:05:52;;;;;;;35.33;17.77;;;;;;;;;;5050938;28;20582;-59
2023/02/16 07:08:18;;;;;;;36.60;18.53;;;;;;;;;;5050983;28;20664;-60
2023/02/16 07:10:45;;;;;;;26.57;17.23;;;;;;;;;;5051081;28;20428;-61
2023/02/16 07:13:11;;;;;;;25.33;17.23;;;;;;;;;;5050304;28;20197;-58
2023/02/16 07:15:36;;;;;;;24.13;16.20;;;3.20;99.90;;;;;;5050954;28;20414;-57
2023/02/16 07:18:02;;;;;;;25.43;17.13;;;;;;;;;;5050833;28;20627;-60
2023/02/16 07:20:28;;;;;;;24.37;16.43;;;;;;;;;;5050778;28;20198;-58
2023/02/16 07:22:54;;;;;;;25.87;18.20;;;;;;;;;;5050630;28;20651;-59
2023/02/16 07:25:21;;;;;;;30.87;17.70;;;;;;;;;;5061670;28;20765;-58
2023/02/16 07:27:47;;;;;;;25.63;17.97;;;;;;;;;;5070674;28;20213;-59
2023/02/16 07:30:15;;;;;;;29.57;17.90;;;;;;;;;;5055002;28;20525;-60
2023/02/16 07:32:41;;;;;;;75.40;21.33;;;;;;;;;;5050210;28;20472;-60
2023/02/16 07:35:06;;;;;;;28.93;19.27;;;3.30;99.90;;;;;;5051910;28;20421;-58
2023/02/16 07:37:32;;;;;;;27.33;18.30;;;3.40;99.90;;;;;;5049530;28;20190;-57
2023/02/16 07:39:58;;;;;;;48.27;19.70;;;;;;;;;;5050245;28;20183;-61
2023/02/16 07:42:23;;;;;;;46.13;19.43;;;3.40;99.90;;;;;;5050343;28;20214;-57
2023/02/16 07:44:49;;;;;;;25.73;17.53;;;;;;;;;;5051076;28;20263;-60
2023/02/16 07:47:15;;;;;;;31.30;17.33;;;;;;;;;;5034313;28;20240;-60
2023/02/16 07:49:41;;;;;;;29.80;18.73;;;;;;;;;;5056582;28;20768;-56
2023/02/16 07:52:07;;;;;;;25.10;17.87;;;;;;;;;;5055519;28;20219;-58
2023/02/16 07:54:33;;;;;;;27.57;18.07;;;;;;;;;;5057387;28;20480;-58
2023/02/16 07:56:59;;;;;;;29.17;18.33;;;;;;;;;;5063685;28;20192;-57
2023/02/16 07:59:25;;;;;;;29.97;18.83;;;;;;;;;;5025754;28;20190;-58
2023/02/16 08:01:51;;;;;;;33.63;19.20;;;;;;;;;;5054916;28;20199;-54
2023/02/16 08:04:17;;;;;;;27.03;18.63;;;;;;;;;;5067125;28;20202;-56
2023/02/16 08:06:44;;;;;;;28.23;19.23;;;;;;;;;;5056121;28;20210;-57
2023/02/16 08:09:10;;;;;;;26.03;17.80;;;;;;;;;;5055142;28;20728;-57
2023/02/16 08:11:36;;;;;;;29.10;18.70;;;;;;;;;;5052672;28;20461;-58
2023/02/16 08:14:02;;;;;;;28.23;18.53;;;;;;;;;;5052984;28;20213;-60
2023/02/16 08:16:29;;;;;;;29.17;18.70;;;;;;;;;;5053629;28;20198;-57
2023/02/16 08:18:56;;;;;;;64.30;20.47;;;3.30;99.90;;;;;;5053987;28;20179;-59
2023/02/16 08:21:23;;;;;;;36.03;19.80;;;;;;;;;;5053755;28;20430;-58
2023/02/16 08:23:53;;;;;;;28.30;17.97;;;;;;;;;;5054140;28;20186;-58
2023/02/16 08:26:20;;;;;;;38.70;24.83;;;3.60;99.90;;;;;;5053543;28;20229;-58
2023/02/16 08:28:48;;;;;;;27.73;18.03;;;;;;;;;;5053160;28;20241;-57
2023/02/16 08:31:15;;;;;;;29.80;19.43;;;;;;;;;;5053355;28;20199;-57
2023/02/16 08:33:41;;;;;;;34.53;20.03;;;;;;;;;;5053454;28;20402;-60
2023/02/16 08:36:14;;;;;;;29.50;19.60;;;4.20;99.90;;;;;;5052919;28;20228;-60
2023/02/16 08:38:42;;;;;;;29.53;19.27;;;;;;;;;;5053471;28;20641;-55
2023/02/16 08:41:07;;;;;;;27.47;18.23;;;3.70;99.90;;;;;;5053504;28;20199;-60
2023/02/16 08:43:33;;;;;;;24.10;17.20;;;;;;;;;;5035322;28;20301;-60
2023/02/16 08:45:59;;;;;;;30.13;19.30;;;;;;;;;;5053070;28;20288;-57
2023/02/16 08:48:27;;;;;;;27.25;20.35;;;;;;;;;;5051956;28;20447;-57
2023/02/16 08:50:53;;;;;;;29.00;19.40;;;4.00;99.90;;;;;;5052932;28;20585;-58
2023/02/16 08:53:20;;;;;;;27.63;18.37;;;4.10;99.90;;;;;;5053340;28;20167;-58
2023/02/16 08:55:55;;;;;;;24.77;17.33;;;;;;;;;;5053194;28;20176;-57
2023/02/16 08:58:22;;;;;;;31.47;18.77;;;4.20;99.90;;;;;;5052745;28;20171;-56
2023/02/16 09:00:48;;;;;;;26.37;17.20;;;4.30;99.90;;;;;;5052493;28;20261;-58
2023/02/16 09:03:15;;;;;;;27.73;17.27;;;;;;;;;;5052602;28;20179;-57
2023/02/16 09:05:41;;;;;;;27.80;17.87;;;;;;;;;;5052938;28;20198;-57
2023/02/16 09:08:07;;;;;;;24.07;16.83;;;;;;;;;;5052633;28;20302;-57
2023/02/16 09:10:33;;;;;;;26.00;17.50;;;;;;;;;;5052665;28;20237;-59
2023/02/16 09:12:59;;;;;;;26.17;16.90;;;;;;;;;;5052975;28;20171;-59
2023/02/16 09:15:25;;;;;;;24.57;16.80;;;;;;;;;;5059985;28;20194;-55
2023/02/16 09:17:51;;;;;;;23.00;16.07;;;;;;;;;;5054758;28;20190;-57
2023/02/16 09:20:19;;;;;;;26.13;16.93;;;4.50;99.90;;;;;;5052353;28;20309;-56
2023/02/16 09:22:45;;;;;;;31.97;21.03;;;;;;;;;;5052691;28;20183;-54
2023/02/16 09:25:11;;;;;;;25.03;17.23;;;;;;;;;;5052527;28;20379;-56
2023/02/16 09:27:37;;;;;;;26.27;18.40;;;4.60;99.90;;;;;;5052321;28;20172;-57
2023/02/16 09:30:04;;;;;;;26.90;18.10;;;4.80;99.90;;;;;;5052185;28;20618;-58
2023/02/16 09:32:31;;;;;;;24.70;17.40;;;;;;;;;;5034479;28;20593;-57
2023/02/16 09:34:56;;;;;;;28.00;18.77;;;4.90;99.90;;;;;;5052604;28;20211;-56
2023/02/16 09:37:22;;;;;;;27.83;19.77;;;;;;;;;;5051955;28;20202;-59
2023/02/16 09:39:48;;;;;;;29.30;20.13;;;;;;;;;;5052649;28;20699;-58
2023/02/16 09:42:32;;;;;;;28.90;19.00;;;;;;;;;;5052300;28;20274;-55
2023/02/16 09:45:02;;;;;;;28.67;18.63;;;4.90;99.90;;;;;;5052147;28;20584;-56
2023/02/16 09:47:32;;;;;;;24.97;16.60;;;4.70;99.90;;;;;;5051366;28;20613;-60
2023/02/16 09:50:24;;;;;;;26.20;17.40;;;;;;;;;;5069040;28;20202;-53
2023/02/16 09:52:57;;;;;;;23.57;16.43;;;;;;;;;;5068557;28;20186;-54
2023/02/16 09:55:25;;;;;;;23.33;16.87;;;;;;;;;;5072037;28;20202;-56
2023/02/16 09:57:55;;;;;;;28.70;19.20;;;;;;;;;;5055031;28;20189;-59
2023/02/16 10:00:33;;;;;;;25.77;16.57;;;4.90;99.90;;;;;;5037375;28;20563;-55
2023/02/16 10:03:04;;;;;;;24.43;16.57;;;4.80;99.90;;;;;;5068615;28;20545;-56
2023/02/16 10:05:34;;;;;;;24.43;17.17;;;;;;;;;;5067886;28;20202;-53
2023/02/16 10:08:02;;;;;;;26.40;17.57;;;4.90;99.90;;;;;;5050920;28;20167;-53
2023/02/16 10:10:34;;;;;;;23.97;17.03;;;5.00;99.90;;;;;;5051550;28;20549;-53
2023/02/16 10:13:04;;;;;;;23.80;15.57;;;;;;;;;;5051798;28;20163;-54
2023/02/16 10:15:32;;;;;;;22.00;15.53;;;5.00;99.90;;;;;;5050694;28;20202;-55
2023/02/16 10:18:00;;;;;;;24.47;16.23;;;;;;;;;;5050132;28;20191;-56
2023/02/16 10:20:37;;;;;;;22.23;15.67;;;;;;;;;;5063703;28;20589;-56
2023/02/16 10:23:22;;;;;;;24.37;15.30;;;;;;;;;;5051416;28;20252;-56
2023/02/16 10:25:54;;;;;;;24.20;16.43;;;;;;;;;;5054157;28;20241;-55
2023/02/16 10:28:30;;;;;;;24.13;15.47;;;4.80;99.90;;;;;;5048577;28;20179;-57
2023/02/16 10:31:12;;;;;;;23.47;15.50;;;4.90;99.90;;;;;;5051177;28;20681;-57
2023/02/16 10:33:43;;;;;;;20.73;14.87;;;;;;;;;;5051166;28;20206;-54
2023/02/16 10:36:29;;;;;;;20.83;15.63;;;;;;;;;;5051276;28;20236;-54
2023/02/16 10:39:13;;;;;;;19.27;13.27;;;;;;;;;;4970341;28;20217;-56
2023/02/16 10:41:49;;;;;;;21.17;14.77;;;;;;;;;;4944911;28;20233;-58
2023/02/16 10:44:20;;;;;;;22.97;15.50;;;;;;;;;;4943790;28;20237;-53
2023/02/16 10:46:50;;;;;;;25.80;16.83;;;;;;;;;;4962446;28;20197;-54
2023/02/16 10:49:17;;;;;;;22.73;16.13;;;;;;;;;;4944183;28;20195;-53
2023/02/16 10:51:49;;;;;;;21.77;16.53;;;;;;;;;;4963824;28;20198;-55
2023/02/16 10:54:23;;;;;;;24.10;17.00;;;;;;;;;;4948861;28;20556;-55
2023/02/16 10:56:51;;;;;;;20.67;15.33;;;;;;;;;;4964043;28;20217;-56
2023/02/16 10:59:29;;;;;;;21.17;14.83;;;5.60;99.90;;;;;;4970284;28;20181;-56
2023/02/16 11:01:57;;;;;;;20.50;14.97;;;5.60;99.90;;;;;;4941985;28;20205;-55
2023/02/16 11:04:43;;;;;;;23.07;16.33;;;5.60;99.90;;;;;;4948263;28;20206;-58
2023/02/16 11:07:21;;;;;;;21.20;15.87;;;5.50;99.90;;;;;;4958073;28;20186;-57
2023/02/16 11:09:54;;;;;;;23.83;16.17;;;6.10;99.90;;;;;;4949866;28;20198;-55
2023/02/16 11:12:20;;;;;;;25.93;18.40;;;;;;;;;;4963927;28;20194;-53
2023/02/16 11:14:51;;;;;;;23.93;15.77;;;;;;;;;;4941244;28;20258;-56
2023/02/16 11:17:17;;;;;;;24.63;16.13;;;;;;;;;;5048498;28;20193;-57
2023/02/16 11:19:52;;;;;;;24.73;17.03;;;;;;;;;;5062664;28;20258;-54
2023/02/16 11:22:46;;;;;;;24.00;16.50;;;;;;;;;;5033312;28;20198;-56
2023/02/16 11:25:18;;;;;;;23.47;15.53;;;;;;;;;;5046744;28;20702;-56
2023/02/16 11:28:00;;;;;;;22.80;16.30;;;6.00;99.90;;;;;;5054480;28;20183;-56
2023/02/16 11:30:31;;;;;;;23.80;16.73;;;;;;;;;;5055276;28;20646;-53
2023/02/16 11:32:59;;;;;;;23.17;16.27;;;;;;;;;;5074733;28;20177;-58
2023/02/16 11:35:26;;;;;;;25.40;17.27;;;;;;;;;;5065772;28;20171;-57
2023/02/16 11:37:52;;;;;;;24.47;17.20;;;;;;;;;;5054111;28;20183;-56
2023/02/16 11:40:29;;;;;;;23.63;16.43;;;6.00;99.90;;;;;;5054650;28;20183;-56
2023/02/16 11:42:57;;;;;;;24.53;16.53;;;6.00;99.90;;;;;;5054831;28;20178;-57
2023/02/16 11:45:34;;;;;;;26.10;17.77;;;;;;;;;;5054465;28;20214;-56
2023/02/16 11:48:11;;;;;;;23.73;16.83;;;5.80;99.90;;;;;;5054195;28;20194;-56
2023/02/16 11:50:38;;;;;;;24.90;17.10;;;6.00;99.90;;;;;;5068882;28;20182;-55
2023/02/16 11:53:11;;;;;;;24.90;18.07;;;;;;;;;;5053740;28;20185;-56
2023/02/16 11:55:40;;;;;;;23.67;17.17;;;6.10;99.90;;;;;;5054201;28;20222;-57
2023/02/16 11:58:14;;;;;;;28.60;18.17;;;;;;;;;;5054245;28;20202;-52
2023/02/16 12:00:43;;;;;;;26.10;18.50;;;;;;;;;;5054448;28;20264;-57
2023/02/16 12:03:16;;;;;;;24.27;17.33;;;;;;;;;;5054451;28;20175;-56
2023/02/16 12:06:01;;;;;;;27.47;18.77;;;;;;;;;;5054159;28;20248;-54
2023/02/16 12:08:53;;;;;;;29.23;20.47;;;;;;;;;;5053020;28;20175;-58
2023/02/16 12:11:27;;;;;;;25.40;18.40;;;;;;;;;;4953038;29;20282;-60
2023/02/16 12:14:14;;;;;;;30.40;21.37;;;6.40;99.90;;;;;;4953601;29;20239;-56
2023/02/16 12:16:58;;;;;;;32.97;21.63;;;;;;;;;;4953289;29;20213;-52
2023/02/16 12:19:46;;;;;;;26.70;18.63;;;6.50;99.90;;;;;;4953342;29;20238;-54
2023/02/16 12:22:24;;;;;;;31.00;21.07;;;6.30;99.90;;;;;;4953637;29;20281;-56
2023/02/16 12:25:02;;;;;;;28.17;19.13;;;6.50;99.90;;;;;;4967736;28;20260;-58
2023/02/16 12:27:53;;;;;;;24.47;17.60;;;6.40;99.90;;;;;;4955746;28;20178;-57
2023/02/16 12:30:51;;;;;;;24.63;17.63;;;6.50;99.90;;;;;;4953429;29;20645;-57
2023/02/16 12:33:20;;;;;;;25.30;17.80;;;;;;;;;;4953567;29;20186;-55
2023/02/16 12:35:55;;;;;;;27.70;17.57;;;;;;;;;;4953138;29;20217;-58
2023/02/16 12:38:33;;;;;;;23.47;16.53;;;;;;;;;;4952329;28;20503;-54
2023/02/16 12:41:35;;;;;;;24.23;17.17;;;6.70;99.90;;;;;;4953265;29;20206;-56
2023/02/16 12:44:08;;;;;;;22.30;16.77;;;;;;;;;;4952563;28;20404;-54
2023/02/16 12:46:39;;;;;;;24.10;18.27;;;;;;;;;;4952802;29;20254;-56
2023/02/16 12:49:26;;;;;;;24.13;17.83;;;;;;;;;;5025411;28;20732;-53
2023/02/16 12:52:09;;;;;;;28.93;19.50;;;7.00;99.90;;;;;;5044796;28;20206;-55
2023/02/16 12:54:46;;;;;;;27.70;19.10;;;7.00;99.90;;;;;;5053390;28;20265;-52
2023/02/16 12:57:14;;;;;;;27.63;19.03;;;7.00;99.90;;;;;;5053113;28;20257;-57
2023/02/16 12:59:44;;;;;;;28.17;19.20;;;;;;;;;;5053296;28;20187;-57
2023/02/16 13:02:23;;;;;;;27.33;19.40;;;;;;;;;;5052864;28;20199;-56
2023/02/16 13:04:57;;;;;;;26.50;19.17;;;;;;;;;;5053141;28;20270;-54
2023/02/16 13:07:27;;;;;;;24.27;17.33;;;6.90;99.90;;;;;;5052843;28;20190;-56
2023/02/16 13:10:17;;;;;;;23.67;17.10;;;7.20;99.90;;;;;;5053128;28;20174;-56
2023/02/16 13:12:51;;;;;;;25.23;18.17;;;;;;;;;;5052803;28;20187;-57
2023/02/16 13:15:23;;;;;;;27.17;19.33;;;;;;;;;;5052986;28;20204;-56
2023/02/16 13:17:52;;;;;;;24.53;18.03;;;;;;;;;;5052902;28;20282;-56
2023/02/16 13:20:20;;;;;;;27.10;18.53;;;;;;;;;;5052695;28;20289;-56
2023/02/16 13:22:54;;;;;;;25.23;18.40;;;;;;;;;;5052422;28;20240;-54
2023/02/16 13:25:32;;;;;;;28.03;19.40;;;7.60;99.90;;;;;;5052513;28;20697;-56
2023/02/16 13:28:07;;;;;;;25.53;18.53;;;;;;;;;;5052396;28;20182;-55
2023/02/16 13:30:39;;;;;;;25.30;18.57;;;;;;;;;;5052135;28;20203;-56
2023/02/16 13:33:20;;;;;;;27.63;18.60;;;7.00;99.90;;;;;;5045221;28;20267;-55
2023/02/16 13:35:51;;;;;;;27.23;19.40;;;7.10;99.90;;;;;;5049937;28;20233;-56
2023/02/16 13:38:23;;;;;;;28.73;20.77;;;;;;;;;;5051353;28;20179;-58
2023/02/16 13:41:15;;;;;;;26.53;19.37;;;7.00;99.90;;;;;;5049947;28;20240;-55
2023/02/16 13:43:48;;;;;;;27.20;19.00;;;;;;;;;;5030024;28;20194;-55
2023/02/16 13:46:19;;;;;;;26.63;18.53;;;;;;;;;;5052270;28;20735;-54
2023/02/16 13:48:48;;;;;;;24.63;18.70;;;7.40;99.90;;;;;;5052081;28;20250;-55
2023/02/16 13:51:19;;;;;;;26.07;19.63;;;7.40;99.90;;;;;;5050999;28;20199;-58
2023/02/16 13:53:56;;;;;;;26.10;19.20;;;7.70;99.90;;;;;;5052345;28;20179;-55
2023/02/16 13:56:42;;;;;;;26.13;19.57;;;;;;;;;;5052184;28;20186;-54
2023/02/16 13:59:18;;;;;;;24.27;19.23;;;;;;;;;;5051899;28;20245;-56
2023/02/16 14:01:47;;;;;;;29.07;20.73;;;8.50;99.90;;;;;;5052160;28;20210;-55
2023/02/16 14:04:23;;;;;;;24.40;17.97;;;;;;;;;;5051563;28;20274;-54
2023/02/16 14:06:49;;;;;;;26.90;20.17;;;;;;;;;;5048728;28;20553;-56
2023/02/16 14:09:15;;;;;;;27.87;18.53;;;;;;;;;;5051840;28;20175;-58
2023/02/16 14:11:58;;;;;;;25.67;18.90;;;;;;;;;;5051330;28;20198;-56
2023/02/16 14:14:32;;;;;;;25.27;18.40;;;8.00;99.90;;;;;;5052028;28;20233;-55
2023/02/16 14:17:22;;;;;;;27.03;19.07;;;8.30;99.90;;;;;;5050883;28;20228;-55
2023/02/16 14:19:48;;;;;;;23.80;17.73;;;;;;;;;;5031941;28;20226;-56
2023/02/16 14:22:17;;;;;;;22.97;17.07;;;;;;;;;;5031763;28;20218;-56
2023/02/16 14:24:51;;;;;;;23.60;18.20;;;8.80;99.90;;;;;;5031597;28;20230;-57
2023/02/16 14:27:37;;;;;;;24.13;17.57;;;;;;;;;;5041890;28;20175;-56
2023/02/16 14:30:11;;;;;;;23.03;17.13;;;9.20;99.90;;;;;;5051432;28;20190;-55
2023/02/16 14:32:37;;;;;;;24.00;18.90;;;9.30;99.90;;;;;;5051553;28;20618;-54